sensor_id;sensor_type;location;lat;lon;timestamp;pressure;altitude;pressure_sealevel;temperature;humidity
51053;BME280;37093;37.716;-122.060;2023-06-10T00:01:19;99855.20;;;20.51;39.12
51053;BME280;37093;37.716;-122.060;2023-06-10T00:03:47;99850.88;;;20.70;37.77
51053;BME280;37093;37.716;-122.060;2023-06-10T00:06:15;99846.10;;;20.34;37.83
51053;BME280;37093;37.716;-122.060;2023-06-10T00:08:44;99849.05;;;21.33;37.16
51053;BME280;37093;37.716;-122.060;2023-06-10T00:11:12;99843.50;;;20.56;37.37
51053;BME280;37093;37.716;-122.060;2023-06-10T00:13:41;99846.35;;;20.74;37.53
51053;BME280;37093;37.716;-122.060;2023-06-10T00:16:10;99845.64;;;20.66;37.52
51053;BME280;37093;37.716;-122.060;2023-06-10T00:18:38;99851.29;;;19.72;38.58
51053;BME280;37093;37.716;-122.060;2023-06-10T00:21:07;99845.35;;;20.44;37.97
51053;BME280;37093;37.716;-122.060;2023-06-10T00:23:35;99851.31;;;20.45;37.96
51053;BME280;37093;37.716;-122.060;2023-06-10T00:26:04;99845.02;;;20.52;36.88
51053;BME280;37093;37.716;-122.060;2023-06-10T00:28:33;99840.80;;;20.75;36.44
51053;BME280;37093;37.716;-122.060;2023-06-10T00:31:01;99842.54;;;21.02;35.75
51053;BME280;37093;37.716;-122.060;2023-06-10T00:33:30;99847.89;;;21.07;36.61
51053;BME280;37093;37.716;-122.060;2023-06-10T00:35:58;99846.37;;;20.24;36.83
51053;BME280;37093;37.716;-122.060;2023-06-10T00:38:27;99852.77;;;20.54;36.97
51053;BME280;37093;37.716;-122.060;2023-06-10T00:40:56;99856.34;;;20.15;37.51
51053;BME280;37093;37.716;-122.060;2023-06-10T00:43:25;99853.07;;;19.42;38.65
51053;BME280;37093;37.716;-122.060;2023-06-10T00:45:53;99849.20;;;19.94;38.18
51053;BME280;37093;37.716;-122.060;2023-06-10T00:48:22;99854.14;;;19.26;39.53
51053;BME280;37093;37.716;-122.060;2023-06-10T00:50:50;99845.98;;;19.37;39.39
51053;BME280;37093;37.716;-122.060;2023-06-10T00:53:19;99845.72;;;19.39;38.90
51053;BME280;37093;37.716;-122.060;2023-06-10T00:55:49;99842.84;;;19.80;38.99
51053;BME280;37093;37.716;-122.060;2023-06-10T00:58:18;99842.04;;;19.18;40.16
51053;BME280;37093;37.716;-122.060;2023-06-10T01:00:46;99841.42;;;19.47;39.45
51053;BME280;37093;37.716;-122.060;2023-06-10T01:03:15;99843.08;;;19.52;39.36
51053;BME280;37093;37.716;-122.060;2023-06-10T01:05:43;99841.36;;;18.56;41.02
51053;BME280;37093;37.716;-122.060;2023-06-10T01:11:06;99844.18;;;19.09;40.06
51053;BME280;37093;37.716;-122.060;2023-06-10T01:13:36;99845.09;;;19.01;39.93
51053;BME280;37093;37.716;-122.060;2023-06-10T01:16:08;99845.29;;;18.48;40.90
51053;BME280;37093;37.716;-122.060;2023-06-10T01:18:36;99845.86;;;18.87;40.86
51053;BME280;37093;37.716;-122.060;2023-06-10T01:21:05;99846.03;;;19.02;40.40
51053;BME280;37093;37.716;-122.060;2023-06-10T01:23:33;99850.14;;;18.08;42.56
51053;BME280;37093;37.716;-122.060;2023-06-10T01:26:04;99839.36;;;18.89;40.81
51053;BME280;37093;37.716;-122.060;2023-06-10T01:28:38;99839.87;;;19.04;41.47
51053;BME280;37093;37.716;-122.060;2023-06-10T01:31:15;99841.65;;;18.74;41.05
51053;BME280;37093;37.716;-122.060;2023-06-10T01:33:47;99843.12;;;18.19;41.82
51053;BME280;37093;37.716;-122.060;2023-06-10T01:36:16;99837.02;;;18.87;40.89
51053;BME280;37093;37.716;-122.060;2023-06-10T01:38:47;99835.22;;;18.93;40.46
51053;BME280;37093;37.716;-122.060;2023-06-10T01:41:17;99836.75;;;18.76;40.73
51053;BME280;37093;37.716;-122.060;2023-06-10T01:43:46;99840.69;;;18.21;41.58
51053;BME280;37093;37.716;-122.060;2023-06-10T01:46:15;99838.40;;;18.66;41.27
51053;BME280;37093;37.716;-122.060;2023-06-10T01:48:43;99843.17;;;18.26;41.82
51053;BME280;37093;37.716;-122.060;2023-06-10T01:51:12;99840.51;;;18.66;40.59
51053;BME280;37093;37.716;-122.060;2023-06-10T01:53:40;99838.42;;;18.52;40.48
51053;BME280;37093;37.716;-122.060;2023-06-10T01:56:09;99834.01;;;19.23;39.44
51053;BME280;37093;37.716;-122.060;2023-06-10T01:58:38;99831.12;;;18.95;40.10
51053;BME280;37093;37.716;-122.060;2023-06-10T02:01:06;99833.67;;;19.87;37.96
51053;BME280;37093;37.716;-122.060;2023-06-10T02:03:34;99829.92;;;19.70;38.72
51053;BME280;37093;37.716;-122.060;2023-06-10T02:06:03;99832.79;;;19.06;40.33
51053;BME280;37093;37.716;-122.060;2023-06-10T02:08:32;99834.81;;;19.09;40.04
51053;BME280;37093;37.716;-122.060;2023-06-10T02:11:00;99834.31;;;19.11;39.70
51053;BME280;37093;37.716;-122.060;2023-06-10T02:13:29;99835.58;;;19.75;38.79
51053;BME280;37093;37.716;-122.060;2023-06-10T02:15:57;99838.57;;;19.71;39.50
51053;BME280;37093;37.716;-122.060;2023-06-10T02:18:26;99841.07;;;19.57;39.46
51053;BME280;37093;37.716;-122.060;2023-06-10T02:20:54;99837.00;;;19.20;39.21
51053;BME280;37093;37.716;-122.060;2023-06-10T02:23:23;99839.12;;;19.27;39.69
51053;BME280;37093;37.716;-122.060;2023-06-10T02:25:51;99836.43;;;19.08;39.56
51053;BME280;37093;37.716;-122.060;2023-06-10T02:28:20;99839.32;;;18.97;39.97
51053;BME280;37093;37.716;-122.060;2023-06-10T02:30:50;99837.89;;;18.85;40.62
51053;BME280;37093;37.716;-122.060;2023-06-10T02:33:19;99848.54;;;18.16;41.16
51053;BME280;37093;37.716;-122.060;2023-06-10T02:35:47;99845.16;;;19.31;40.11
51053;BME280;37093;37.716;-122.060;2023-06-10T02:38:16;99849.38;;;18.14;41.48
51053;BME280;37093;37.716;-122.060;2023-06-10T02:40:44;99844.88;;;18.92;40.54
51053;BME280;37093;37.716;-122.060;2023-06-10T02:43:13;99841.72;;;18.69;40.70
51053;BME280;37093;37.716;-122.060;2023-06-10T02:45:42;99844.22;;;18.65;41.37
51053;BME280;37093;37.716;-122.060;2023-06-10T02:48:11;99844.33;;;18.55;41.61
51053;BME280;37093;37.716;-122.060;2023-06-10T02:50:39;99843.35;;;18.65;42.05
51053;BME280;37093;37.716;-122.060;2023-06-10T02:53:08;99850.67;;;18.37;41.66
51053;BME280;37093;37.716;-122.060;2023-06-10T02:55:36;99855.49;;;18.69;41.64
51053;BME280;37093;37.716;-122.060;2023-06-10T02:58:05;99854.29;;;19.02;40.87
51053;BME280;37093;37.716;-122.060;2023-06-10T03:00:33;99853.31;;;19.15;40.54
51053;BME280;37093;37.716;-122.060;2023-06-10T03:03:02;99853.59;;;18.92;40.75
51053;BME280;37093;37.716;-122.060;2023-06-10T03:05:30;99854.62;;;18.34;42.10
51053;BME280;37093;37.716;-122.060;2023-06-10T03:07:59;99860.87;;;18.09;42.51
51053;BME280;37093;37.716;-122.060;2023-06-10T03:10:27;99865.69;;;17.93;44.11
51053;BME280;37093;37.716;-122.060;2023-06-10T03:12:56;99865.47;;;17.94;44.31
51053;BME280;37093;37.716;-122.060;2023-06-10T03:15:25;99868.95;;;18.23;43.59
51053;BME280;37093;37.716;-122.060;2023-06-10T03:17:53;99863.48;;;17.62;44.60
51053;BME280;37093;37.716;-122.060;2023-06-10T03:20:21;99862.27;;;17.39;44.79
51053;BME280;37093;37.716;-122.060;2023-06-10T03:22:50;99865.44;;;18.24;43.35
51053;BME280;37093;37.716;-122.060;2023-06-10T03:25:19;99866.36;;;18.30;42.75
51053;BME280;37093;37.716;-122.060;2023-06-10T03:27:47;99870.43;;;17.81;43.62
51053;BME280;37093;37.716;-122.060;2023-06-10T03:30:16;99877.07;;;17.57;44.39
51053;BME280;37093;37.716;-122.060;2023-06-10T03:32:45;99877.99;;;18.57;42.77
51053;BME280;37093;37.716;-122.060;2023-06-10T03:35:13;99875.66;;;17.71;44.20
51053;BME280;37093;37.716;-122.060;2023-06-10T03:37:41;99880.54;;;18.18;43.63
51053;BME280;37093;37.716;-122.060;2023-06-10T03:40:10;99880.06;;;17.47;45.52
51053;BME280;37093;37.716;-122.060;2023-06-10T03:42:38;99886.05;;;17.25;45.69
51053;BME280;37093;37.716;-122.060;2023-06-10T03:45:08;99885.36;;;17.68;46.07
51053;BME280;37093;37.716;-122.060;2023-06-10T03:47:38;99878.30;;;16.59;47.73
51053;BME280;37093;37.716;-122.060;2023-06-10T03:50:07;99879.35;;;16.62;47.94
51053;BME280;37093;37.716;-122.060;2023-06-10T03:52:35;99877.06;;;17.14;47.41
51053;BME280;37093;37.716;-122.060;2023-06-10T03:55:05;99879.51;;;16.77;48.04
51053;BME280;37093;37.716;-122.060;2023-06-10T03:57:33;99879.67;;;16.98;47.41
51053;BME280;37093;37.716;-122.060;2023-06-10T04:00:02;99882.04;;;17.27;45.82
51053;BME280;37093;37.716;-122.060;2023-06-10T04:02:30;99882.16;;;17.27;46.45
51053;BME280;37093;37.716;-122.060;2023-06-10T04:04:59;99879.11;;;17.10;47.22
51053;BME280;37093;37.716;-122.060;2023-06-10T04:07:27;99884.57;;;17.02;47.36
51053;BME280;37093;37.716;-122.060;2023-06-10T04:09:56;99882.05;;;16.92;47.59
51053;BME280;37093;37.716;-122.060;2023-06-10T04:12:24;99884.20;;;16.72;47.57
51053;BME280;37093;37.716;-122.060;2023-06-10T04:14:53;99877.61;;;16.84;48.10
51053;BME280;37093;37.716;-122.060;2023-06-10T04:17:21;99879.55;;;17.25;47.28
51053;BME280;37093;37.716;-122.060;2023-06-10T04:19:50;99878.56;;;17.61;46.80
51053;BME280;37093;37.716;-122.060;2023-06-10T04:22:19;99879.06;;;17.32;46.55
51053;BME280;37093;37.716;-122.060;2023-06-10T04:24:47;99883.96;;;17.30;46.88
51053;BME280;37093;37.716;-122.060;2023-06-10T04:27:16;99882.62;;;17.97;45.35
51053;BME280;37093;37.716;-122.060;2023-06-10T04:29:44;99884.92;;;17.88;45.58
51053;BME280;37093;37.716;-122.060;2023-06-10T04:32:13;99884.73;;;17.45;46.81
51053;BME280;37093;37.716;-122.060;2023-06-10T04:34:42;99886.40;;;17.42;46.09
51053;BME280;37093;37.716;-122.060;2023-06-10T04:37:11;99888.74;;;17.29;46.70
51053;BME280;37093;37.716;-122.060;2023-06-10T04:39:39;99891.70;;;17.50;45.87
51053;BME280;37093;37.716;-122.060;2023-06-10T04:42:08;99900.45;;;17.34;46.15
51053;BME280;37093;37.716;-122.060;2023-06-10T04:44:36;99900.48;;;17.86;45.01
51053;BME280;37093;37.716;-122.060;2023-06-10T04:47:05;99900.96;;;17.71;45.23
51053;BME280;37093;37.716;-122.060;2023-06-10T04:49:34;99897.24;;;17.85;44.86
51053;BME280;37093;37.716;-122.060;2023-06-10T04:52:03;99897.44;;;17.41;45.56
51053;BME280;37093;37.716;-122.060;2023-06-10T04:54:31;99892.69;;;17.14;47.45
51053;BME280;37093;37.716;-122.060;2023-06-10T04:57:00;99889.73;;;17.12;47.92
51053;BME280;37093;37.716;-122.060;2023-06-10T04:59:29;99892.70;;;17.38;46.65
51053;BME280;37093;37.716;-122.060;2023-06-10T05:01:57;99892.59;;;17.40;47.06
51053;BME280;37093;37.716;-122.060;2023-06-10T05:04:26;99898.52;;;17.21;46.90
51053;BME280;37093;37.716;-122.060;2023-06-10T05:06:54;99896.92;;;17.68;45.58
51053;BME280;37093;37.716;-122.060;2023-06-10T05:09:23;99899.17;;;17.92;45.32
51053;BME280;37093;37.716;-122.060;2023-06-10T05:11:51;99896.20;;;17.25;47.45
51053;BME280;37093;37.716;-122.060;2023-06-10T05:14:19;99898.24;;;17.46;46.43
51053;BME280;37093;37.716;-122.060;2023-06-10T05:16:48;99901.74;;;17.09;47.76
51053;BME280;37093;37.716;-122.060;2023-06-10T05:19:16;99904.77;;;16.39;49.34
51053;BME280;37093;37.716;-122.060;2023-06-10T05:21:45;99905.20;;;16.63;49.67
51053;BME280;37093;37.716;-122.060;2023-06-10T05:24:13;99906.23;;;16.55;49.46
51053;BME280;37093;37.716;-122.060;2023-06-10T05:26:42;99907.78;;;17.09;47.99
51053;BME280;37093;37.716;-122.060;2023-06-10T05:29:10;99909.38;;;17.24;46.13
51053;BME280;37093;37.716;-122.060;2023-06-10T05:31:39;99909.63;;;16.66;49.12
51053;BME280;37093;37.716;-122.060;2023-06-10T05:34:07;99900.96;;;17.29;47.95
51053;BME280;37093;37.716;-122.060;2023-06-10T05:36:36;99907.39;;;17.27;47.11
51053;BME280;37093;37.716;-122.060;2023-06-10T05:39:04;99900.39;;;16.84;48.11
51053;BME280;37093;37.716;-122.060;2023-06-10T05:41:33;99902.65;;;16.70;49.38
51053;BME280;37093;37.716;-122.060;2023-06-10T05:44:01;99897.93;;;17.23;48.61
51053;BME280;37093;37.716;-122.060;2023-06-10T05:46:30;99899.05;;;17.12;47.17
51053;BME280;37093;37.716;-122.060;2023-06-10T05:48:59;99895.96;;;16.47;50.39
51053;BME280;37093;37.716;-122.060;2023-06-10T05:51:28;99895.97;;;16.62;50.67
51053;BME280;37093;37.716;-122.060;2023-06-10T05:53:56;99894.74;;;16.44;51.20
51053;BME280;37093;37.716;-122.060;2023-06-10T05:56:24;99894.34;;;16.33;51.21
51053;BME280;37093;37.716;-122.060;2023-06-10T05:58:53;99891.49;;;15.91;52.79
51053;BME280;37093;37.716;-122.060;2023-06-10T06:01:21;99888.36;;;15.85;52.86
51053;BME280;37093;37.716;-122.060;2023-06-10T06:03:50;99883.84;;;16.19;50.92
51053;BME280;37093;37.716;-122.060;2023-06-10T06:06:19;99881.80;;;16.55;49.73
51053;BME280;37093;37.716;-122.060;2023-06-10T06:08:47;99876.12;;;16.82;50.73
51053;BME280;37093;37.716;-122.060;2023-06-10T06:11:16;99873.82;;;17.02;49.12
51053;BME280;37093;37.716;-122.060;2023-06-10T06:13:44;99873.65;;;16.62;50.41
51053;BME280;37093;37.716;-122.060;2023-06-10T06:16:12;99874.25;;;16.68;49.00
51053;BME280;37093;37.716;-122.060;2023-06-10T06:18:41;99870.76;;;17.20;48.04
51053;BME280;37093;37.716;-122.060;2023-06-10T06:21:09;99873.14;;;17.44;47.28
51053;BME280;37093;37.716;-122.060;2023-06-10T06:23:38;99867.37;;;17.73;46.37
51053;BME280;37093;37.716;-122.060;2023-06-10T06:26:06;99871.42;;;17.97;45.65
51053;BME280;37093;37.716;-122.060;2023-06-10T06:28:35;99877.10;;;17.79;45.70
51053;BME280;37093;37.716;-122.060;2023-06-10T06:31:03;99878.11;;;17.12;46.73
51053;BME280;37093;37.716;-122.060;2023-06-10T06:33:32;99876.74;;;17.22;47.66
51053;BME280;37093;37.716;-122.060;2023-06-10T06:36:01;99871.41;;;16.87;47.42
51053;BME280;37093;37.716;-122.060;2023-06-10T06:38:29;99872.49;;;16.73;48.93
51053;BME280;37093;37.716;-122.060;2023-06-10T06:40:58;99872.99;;;16.64;49.18
51053;BME280;37093;37.716;-122.060;2023-06-10T06:43:26;99868.00;;;16.33;49.38
51053;BME280;37093;37.716;-122.060;2023-06-10T06:45:55;99867.01;;;16.80;48.33
51053;BME280;37093;37.716;-122.060;2023-06-10T06:48:23;99864.39;;;16.90;48.21
51053;BME280;37093;37.716;-122.060;2023-06-10T06:50:52;99866.41;;;16.89;47.57
51053;BME280;37093;37.716;-122.060;2023-06-10T06:53:21;99865.78;;;16.72;49.17
51053;BME280;37093;37.716;-122.060;2023-06-10T06:55:49;99866.34;;;16.45;48.45
51053;BME280;37093;37.716;-122.060;2023-06-10T06:58:17;99862.62;;;16.64;48.08
51053;BME280;37093;37.716;-122.060;2023-06-10T07:01:09;99864.84;;;16.67;46.41
51053;BME280;37093;37.716;-122.060;2023-06-10T07:03:38;99863.50;;;15.93;45.71
51053;BME280;37093;37.716;-122.060;2023-06-10T07:06:06;99859.91;;;16.97;44.85
51053;BME280;37093;37.716;-122.060;2023-06-10T07:08:34;99861.26;;;17.63;45.42
51053;BME280;37093;37.716;-122.060;2023-06-10T07:11:03;99861.63;;;17.53;45.32
51053;BME280;37093;37.716;-122.060;2023-06-10T07:13:31;99861.78;;;17.75;45.60
51053;BME280;37093;37.716;-122.060;2023-06-10T07:16:00;99862.38;;;17.57;45.35
51053;BME280;37093;37.716;-122.060;2023-06-10T07:18:28;99861.54;;;17.56;46.77
51053;BME280;37093;37.716;-122.060;2023-06-10T07:20:57;99858.96;;;17.02;46.78
51053;BME280;37093;37.716;-122.060;2023-06-10T07:23:25;99849.98;;;16.82;48.27
51053;BME280;37093;37.716;-122.060;2023-06-10T07:25:54;99845.85;;;16.38;49.57
51053;BME280;37093;37.716;-122.060;2023-06-10T07:28:22;99847.33;;;17.05;47.53
51053;BME280;37093;37.716;-122.060;2023-06-10T07:30:51;99844.54;;;16.56;47.56
51053;BME280;37093;37.716;-122.060;2023-06-10T07:33:20;99845.28;;;16.48;48.04
51053;BME280;37093;37.716;-122.060;2023-06-10T07:35:48;99845.94;;;16.79;47.62
51053;BME280;37093;37.716;-122.060;2023-06-10T07:38:18;99841.31;;;17.14;47.24
51053;BME280;37093;37.716;-122.060;2023-06-10T07:40:47;99830.93;;;16.76;48.52
51053;BME280;37093;37.716;-122.060;2023-06-10T07:43:15;99831.48;;;17.29;47.54
51053;BME280;37093;37.716;-122.060;2023-06-10T07:45:44;99834.91;;;17.01;46.76
51053;BME280;37093;37.716;-122.060;2023-06-10T07:48:12;99834.36;;;17.42;46.67
51053;BME280;37093;37.716;-122.060;2023-06-10T07:50:41;99831.57;;;17.58;46.04
51053;BME280;37093;37.716;-122.060;2023-06-10T07:53:10;99835.70;;;17.68;46.21
51053;BME280;37093;37.716;-122.060;2023-06-10T07:55:39;99835.74;;;17.55;47.07
51053;BME280;37093;37.716;-122.060;2023-06-10T07:58:07;99835.38;;;17.68;46.17
51053;BME280;37093;37.716;-122.060;2023-06-10T08:00:35;99833.19;;;17.29;47.28
51053;BME280;37093;37.716;-122.060;2023-06-10T08:03:04;99832.70;;;17.79;46.49
51053;BME280;37093;37.716;-122.060;2023-06-10T08:05:32;99833.81;;;17.44;47.05
51053;BME280;37093;37.716;-122.060;2023-06-10T08:08:01;99837.53;;;17.34;46.86
51053;BME280;37093;37.716;-122.060;2023-06-10T08:10:29;99841.52;;;17.46;46.97
51053;BME280;37093;37.716;-122.060;2023-06-10T08:12:58;99846.48;;;17.19;48.14
51053;BME280;37093;37.716;-122.060;2023-06-10T08:15:27;99838.81;;;16.90;48.77
51053;BME280;37093;37.716;-122.060;2023-06-10T08:17:55;99830.32;;;16.97;49.45
51053;BME280;37093;37.716;-122.060;2023-06-10T08:20:24;99828.26;;;16.91;48.62
51053;BME280;37093;37.716;-122.060;2023-06-10T08:22:52;99827.82;;;16.97;48.71
51053;BME280;37093;37.716;-122.060;2023-06-10T08:25:21;99825.75;;;16.37;49.82
51053;BME280;37093;37.716;-122.060;2023-06-10T08:27:49;99826.78;;;16.45;49.62
51053;BME280;37093;37.716;-122.060;2023-06-10T08:30:18;99825.71;;;16.25;50.18
51053;BME280;37093;37.716;-122.060;2023-06-10T08:32:47;99817.26;;;16.28;51.39
51053;BME280;37093;37.716;-122.060;2023-06-10T08:35:15;99817.25;;;15.90;52.05
51053;BME280;37093;37.716;-122.060;2023-06-10T08:37:44;99817.07;;;16.28;50.40
51053;BME280;37093;37.716;-122.060;2023-06-10T08:40:13;99816.71;;;16.87;48.67
51053;BME280;37093;37.716;-122.060;2023-06-10T08:42:48;99811.82;;;16.80;48.28
51053;BME280;37093;37.716;-122.060;2023-06-10T08:45:18;99806.52;;;16.09;51.71
51053;BME280;37093;37.716;-122.060;2023-06-10T08:47:46;99804.57;;;16.17;50.34
51053;BME280;37093;37.716;-122.060;2023-06-10T08:50:17;99800.09;;;16.28;50.11
51053;BME280;37093;37.716;-122.060;2023-06-10T08:52:50;99799.17;;;16.54;49.44
51053;BME280;37093;37.716;-122.060;2023-06-10T08:55:26;99805.60;;;16.48;50.17
51053;BME280;37093;37.716;-122.060;2023-06-10T08:57:55;99804.23;;;16.83;48.86
51053;BME280;37093;37.716;-122.060;2023-06-10T09:00:26;99793.26;;;16.53;49.35
51053;BME280;37093;37.716;-122.060;2023-06-10T09:02:55;99790.66;;;16.20;51.42
51053;BME280;37093;37.716;-122.060;2023-06-10T09:05:23;99791.46;;;16.22;50.99
51053;BME280;37093;37.716;-122.060;2023-06-10T09:07:52;99790.88;;;16.20;51.28
51053;BME280;37093;37.716;-122.060;2023-06-10T09:10:21;99784.68;;;16.07;50.37
51053;BME280;37093;37.716;-122.060;2023-06-10T09:12:49;99781.45;;;16.16;50.79
51053;BME280;37093;37.716;-122.060;2023-06-10T09:15:18;99779.67;;;15.43;51.75
51053;BME280;37093;37.716;-122.060;2023-06-10T09:17:47;99777.32;;;15.40;52.95
51053;BME280;37093;37.716;-122.060;2023-06-10T09:20:15;99775.71;;;15.19;52.44
51053;BME280;37093;37.716;-122.060;2023-06-10T09:22:44;99771.01;;;15.23;52.65
51053;BME280;37093;37.716;-122.060;2023-06-10T09:25:13;99768.66;;;15.62;51.62
51053;BME280;37093;37.716;-122.060;2023-06-10T09:27:45;99772.10;;;15.44;52.60
51053;BME280;37093;37.716;-122.060;2023-06-10T09:30:24;99778.06;;;15.56;52.39
51053;BME280;37093;37.716;-122.060;2023-06-10T09:32:54;99774.09;;;15.73;51.28
51053;BME280;37093;37.716;-122.060;2023-06-10T09:35:22;99772.96;;;16.13;50.63
51053;BME280;37093;37.716;-122.060;2023-06-10T09:37:52;99760.06;;;16.02;50.26
51053;BME280;37093;37.716;-122.060;2023-06-10T09:40:21;99758.76;;;15.94;51.07
51053;BME280;37093;37.716;-122.060;2023-06-10T09:42:54;99758.06;;;15.88;51.72
51053;BME280;37093;37.716;-122.060;2023-06-10T09:45:23;99754.88;;;16.20;50.24
51053;BME280;37093;37.716;-122.060;2023-06-10T09:47:53;99751.26;;;16.05;50.12
51053;BME280;37093;37.716;-122.060;2023-06-10T09:50:21;99752.32;;;16.06;51.09
51053;BME280;37093;37.716;-122.060;2023-06-10T09:52:50;99751.17;;;16.50;50.54
51053;BME280;37093;37.716;-122.060;2023-06-10T09:55:18;99749.12;;;16.24;49.33
51053;BME280;37093;37.716;-122.060;2023-06-10T09:57:51;99751.20;;;16.64;48.78
51053;BME280;37093;37.716;-122.060;2023-06-10T10:00:26;99745.72;;;16.27;50.11
51053;BME280;37093;37.716;-122.060;2023-06-10T10:02:54;99742.75;;;16.09;50.76
51053;BME280;37093;37.716;-122.060;2023-06-10T10:05:23;99746.59;;;16.34;49.39
51053;BME280;37093;37.716;-122.060;2023-06-10T10:07:52;99748.04;;;16.65;49.11
51053;BME280;37093;37.716;-122.060;2023-06-10T10:10:21;99743.51;;;16.30;50.28
51053;BME280;37093;37.716;-122.060;2023-06-10T10:12:53;99744.52;;;16.48;50.65
51053;BME280;37093;37.716;-122.060;2023-06-10T10:15:23;99741.23;;;16.06;49.61
51053;BME280;37093;37.716;-122.060;2023-06-10T10:17:57;99745.76;;;16.25;50.52
51053;BME280;37093;37.716;-122.060;2023-06-10T10:20:29;99741.50;;;16.68;49.48
51053;BME280;37093;37.716;-122.060;2023-06-10T10:22:58;99735.35;;;16.19;50.12
51053;BME280;37093;37.716;-122.060;2023-06-10T10:25:29;99737.92;;;16.12;51.13
51053;BME280;37093;37.716;-122.060;2023-06-10T10:28:02;99740.71;;;16.23;49.22
51053;BME280;37093;37.716;-122.060;2023-06-10T10:30:39;99747.22;;;16.48;48.35
51053;BME280;37093;37.716;-122.060;2023-06-10T10:33:13;99749.96;;;16.94;48.43
51053;BME280;37093;37.716;-122.060;2023-06-10T10:35:44;99745.13;;;16.63;48.94
51053;BME280;37093;37.716;-122.060;2023-06-10T10:38:13;99739.65;;;16.56;49.45
51053;BME280;37093;37.716;-122.060;2023-06-10T10:40:42;99736.11;;;16.01;50.52
51053;BME280;37093;37.716;-122.060;2023-06-10T10:43:12;99728.32;;;16.70;49.35
51053;BME280;37093;37.716;-122.060;2023-06-10T10:45:41;99721.54;;;16.08;50.38
51053;BME280;37093;37.716;-122.060;2023-06-10T10:48:10;99727.14;;;15.93;51.38
51053;BME280;37093;37.716;-122.060;2023-06-10T10:50:39;99728.28;;;16.21;50.27
51053;BME280;37093;37.716;-122.060;2023-06-10T10:53:07;99730.13;;;15.89;50.98
51053;BME280;37093;37.716;-122.060;2023-06-10T10:55:36;99735.27;;;15.47;51.57
51053;BME280;37093;37.716;-122.060;2023-06-10T10:58:05;99734.89;;;16.34;50.72
51053;BME280;37093;37.716;-122.060;2023-06-10T11:00:36;99733.90;;;16.13;50.95
51053;BME280;37093;37.716;-122.060;2023-06-10T11:03:07;99730.11;;;15.77;51.21
51053;BME280;37093;37.716;-122.060;2023-06-10T11:05:40;99720.23;;;16.17;50.39
51053;BME280;37093;37.716;-122.060;2023-06-10T11:08:09;99721.24;;;16.65;48.25
51053;BME280;37093;37.716;-122.060;2023-06-10T11:10:39;99714.83;;;16.80;48.75
51053;BME280;37093;37.716;-122.060;2023-06-10T11:13:09;99716.40;;;16.30;50.08
51053;BME280;37093;37.716;-122.060;2023-06-10T11:15:44;99718.84;;;16.49;48.81
51053;BME280;37093;37.716;-122.060;2023-06-10T11:18:19;99713.16;;;16.57;48.69
51053;BME280;37093;37.716;-122.060;2023-06-10T11:20:58;99712.22;;;16.80;47.86
51053;BME280;37093;37.716;-122.060;2023-06-10T11:23:42;99710.70;;;16.85;47.76
51053;BME280;37093;37.716;-122.060;2023-06-10T11:26:14;99705.10;;;17.55;46.72
51053;BME280;37093;37.716;-122.060;2023-06-10T11:29:03;99702.40;;;16.59;48.75
51053;BME280;37093;37.716;-122.060;2023-06-10T11:31:33;99696.64;;;16.39;49.32
51053;BME280;37093;37.716;-122.060;2023-06-10T11:34:03;99703.64;;;16.41;49.17
51053;BME280;37093;37.716;-122.060;2023-06-10T11:36:33;99707.76;;;16.67;49.02
51053;BME280;37093;37.716;-122.060;2023-06-10T11:39:03;99704.57;;;17.13;47.70
51053;BME280;37093;37.716;-122.060;2023-06-10T11:41:33;99704.04;;;16.69;48.93
51053;BME280;37093;37.716;-122.060;2023-06-10T11:44:03;99706.98;;;16.95;47.66
51053;BME280;37093;37.716;-122.060;2023-06-10T11:46:33;99708.96;;;16.81;47.94
51053;BME280;37093;37.716;-122.060;2023-06-10T11:49:02;99707.02;;;16.80;48.41
51053;BME280;37093;37.716;-122.060;2023-06-10T11:51:34;99701.20;;;16.71;48.87
51053;BME280;37093;37.716;-122.060;2023-06-10T11:54:03;99695.63;;;16.88;47.83
51053;BME280;37093;37.716;-122.060;2023-06-10T11:56:32;99690.70;;;16.73;48.63
51053;BME280;37093;37.716;-122.060;2023-06-10T11:59:02;99682.84;;;17.06;47.00
51053;BME280;37093;37.716;-122.060;2023-06-10T12:01:33;99684.41;;;17.36;46.92
51053;BME280;37093;37.716;-122.060;2023-06-10T12:04:03;99691.25;;;17.16;47.65
51053;BME280;37093;37.716;-122.060;2023-06-10T12:06:41;99692.28;;;17.01;46.99
51053;BME280;37093;37.716;-122.060;2023-06-10T12:09:16;99689.50;;;17.48;46.07
51053;BME280;37093;37.716;-122.060;2023-06-10T12:11:44;99693.27;;;17.27;46.23
51053;BME280;37093;37.716;-122.060;2023-06-10T12:14:13;99690.40;;;17.67;46.10
51053;BME280;37093;37.716;-122.060;2023-06-10T12:16:48;99690.10;;;16.73;48.70
51053;BME280;37093;37.716;-122.060;2023-06-10T12:19:17;99687.58;;;17.25;47.48
51053;BME280;37093;37.716;-122.060;2023-06-10T12:21:46;99691.05;;;16.71;48.43
51053;BME280;37093;37.716;-122.060;2023-06-10T12:24:14;99689.73;;;16.51;48.41
51053;BME280;37093;37.716;-122.060;2023-06-10T12:26:43;99688.01;;;17.01;48.65
51053;BME280;37093;37.716;-122.060;2023-06-10T12:29:18;99685.21;;;16.44;50.05
51053;BME280;37093;37.716;-122.060;2023-06-10T12:31:55;99685.19;;;16.03;50.08
51053;BME280;37093;37.716;-122.060;2023-06-10T12:34:29;99682.96;;;16.67;49.39
51053;BME280;37093;37.716;-122.060;2023-06-10T12:36:58;99685.37;;;17.08;47.76
51053;BME280;37093;37.716;-122.060;2023-06-10T12:39:27;99684.62;;;17.04;47.89
51053;BME280;37093;37.716;-122.060;2023-06-10T12:41:55;99685.27;;;16.61;49.03
51053;BME280;37093;37.716;-122.060;2023-06-10T12:44:32;99680.57;;;17.36;47.82